createdAt,value
2022-12-31T00:00:26.726Z,640.21174
2022-12-31T00:15:28.961Z,564.53182
2022-12-31T00:30:31.255Z,474.35836
2022-12-31T00:45:33.567Z,441.19476
2022-12-31T01:00:35.799Z,464.08008
2022-12-31T01:15:38.109Z,488.79248
2022-12-31T01:30:40.451Z,483.11274
2022-12-31T01:45:42.832Z,468.07547
2022-12-31T02:00:45.159Z,461.05282
2022-12-31T02:15:47.592Z,475.63523
2022-12-31T02:30:49.980Z,560.05851
2022-12-31T02:45:52.291Z,607.73327
2022-12-31T03:00:54.569Z,609.83071
2022-12-31T03:15:56.835Z,578.86472
2022-12-31T03:30:59.455Z,583.16321
2022-12-31T03:46:02.034Z,591.95461
2022-12-31T04:01:04.369Z,559.61507
2022-12-31T04:16:06.742Z,532.2243
2022-12-31T04:31:08.970Z,537.48583
2022-12-31T04:46:11.186Z,539.12575
2022-12-31T05:01:13.742Z,546.20854
2022-12-31T05:16:16.409Z,532.62537
2022-12-31T05:31:18.727Z,542.01983
2022-12-31T05:46:21.174Z,570.45507
2022-12-31T06:01:23.541Z,558.73031
2022-12-31T06:16:25.905Z,556.53058
2022-12-31T06:31:28.457Z,610.35733
2022-12-31T06:46:30.873Z,617.82673
2022-12-31T07:01:33.210Z,623.82504
2022-12-31T07:16:35.587Z,613.00415
2022-12-31T07:31:37.921Z,585.57897
2022-12-31T07:46:40.349Z,583.16321
2022-12-31T08:01:42.731Z,564.08127
2022-12-31T08:16:45.161Z,576.50393
2022-12-31T08:31:47.436Z,617.82673
2022-12-31T08:46:49.700Z,643.71016
2022-12-31T09:01:52.303Z,617.82673
2022-12-31T09:16:54.736Z,611.41331
2022-12-31T09:31:57.166Z,611.94267
2022-12-31T09:46:59.438Z,617.82673
2022-12-31T10:02:01.925Z,640.21174
2022-12-31T10:17:04.368Z,667.41618
2022-12-31T10:32:06.789Z,611.41331
2022-12-31T10:47:09.157Z,584.61027
2022-12-31T11:02:11.712Z,626.59022
2022-12-31T11:17:14.031Z,647.24703
2022-12-31T11:32:16.382Z,632.19478
2022-12-31T11:47:18.622Z,663.6561
2022-12-31T12:02:20.909Z,664.90474
2022-12-31T12:17:23.412Z,662.41213
2022-12-31T12:32:25.650Z,682.23333
2022-12-31T12:47:28.077Z,679.60936
2022-12-31T13:02:30.477Z,687.54253
2022-12-31T13:17:32.978Z,678.30492
2022-12-31T13:32:35.291Z,688.212
2022-12-31T13:47:37.509Z,690.22824
2022-12-31T14:02:39.841Z,678.30492
2022-12-31T14:17:42.285Z,675.71103
2022-12-31T14:32:44.607Z,672.49642
2022-12-31T14:47:46.842Z,677.00549
2022-12-31T15:02:49.044Z,664.27983
2022-12-31T15:17:51.299Z,659.93814
2022-12-31T15:32:53.792Z,646.06376
2022-12-31T15:47:56.033Z,649.03008
2022-12-31T16:02:58.405Z,652.02376
2022-12-31T16:18:00.814Z,679.60936
2022-12-31T16:33:03.134Z,682.23333
2022-12-31T16:48:05.574Z,647.84029
2022-12-31T17:03:07.827Z,631.62982
2022-12-31T17:18:10.118Z,591.95461
2022-12-31T17:33:12.332Z,584.61027
2022-12-31T17:48:14.610Z,557.40839
2022-12-31T18:03:16.845Z,558.73031
2022-12-31T18:18:24.350Z,559.61507
2022-12-31T18:33:27.379Z,579.33919
2022-12-31T18:48:29.728Z,588.50442
2022-12-31T19:03:32.017Z,586.55088
2022-12-31T19:18:34.424Z,598.47062
2022-12-31T19:33:36.725Z,629.38003
2022-12-31T19:48:39.091Z,1034.35723
2022-12-31T20:03:41.556Z,1128.38966
2022-12-31T20:18:43.797Z,1302.9471
2022-12-31T20:33:46.020Z,1843.64871
2022-12-31T20:48:48.257Z,2300.81352
2022-12-31T21:04:06.042Z,2669.81184
2022-12-31T21:19:09.311Z,2873.09697
2022-12-31T21:34:11.551Z,3245.41333
2022-12-31T21:49:13.937Z,3487.36956
2022-12-31T22:04:43.326Z,3485.22217
2022-12-31T22:20:26.486Z,3765.80223
2022-12-31T22:35:29.798Z,4146.52065
2022-12-31T22:50:32.085Z,4307.45865
2022-12-31T23:05:34.330Z,4535.25692
2022-12-31T23:20:36.548Z,4685.43098
2022-12-31T23:35:38.905Z,4538.89386
2022-12-31T23:50:41.130Z,4879.31087
